sensor_id;sensor_type;location;lat;lon;timestamp;pressure;altitude;pressure_sealevel;temperature;humidity
50268;BME280;36153;50.960;6.220;2023-01-05T00:03:00;100728.91;;;14.32;62.44
50268;BME280;36153;50.960;6.220;2023-01-05T00:06:10;100735.88;;;14.51;61.89
50268;BME280;36153;50.960;6.220;2023-01-05T00:09:14;100735.03;;;14.45;61.97
50268;BME280;36153;50.960;6.220;2023-01-05T00:12:15;100736.81;;;14.33;62.05
50268;BME280;36153;50.960;6.220;2023-01-05T00:15:35;100741.16;;;14.25;62.17
50268;BME280;36153;50.960;6.220;2023-01-05T00:18:54;100748.13;;;14.51;61.64
50268;BME280;36153;50.960;6.220;2023-01-05T00:22:22;100748.13;;;14.28;62.06
50268;BME280;36153;50.960;6.220;2023-01-05T00:25:38;100755.13;;;14.24;62.49
50268;BME280;36153;50.960;6.220;2023-01-05T00:28:39;100756.00;;;14.31;62.04
50268;BME280;36153;50.960;6.220;2023-01-05T00:31:41;100751.63;;;14.42;61.63
50268;BME280;36153;50.960;6.220;2023-01-05T00:34:41;100761.22;;;14.40;61.54
50268;BME280;36153;50.960;6.220;2023-01-05T00:37:42;100765.56;;;14.18;62.37
50268;BME280;36153;50.960;6.220;2023-01-05T00:40:42;100749.88;;;14.44;61.51
50268;BME280;36153;50.960;6.220;2023-01-05T00:43:43;100756.88;;;14.28;62.49
50268;BME280;36153;50.960;6.220;2023-01-05T00:46:43;100755.13;;;14.38;61.72
50268;BME280;36153;50.960;6.220;2023-01-05T00:49:43;100754.25;;;14.25;62.25
50268;BME280;36153;50.960;6.220;2023-01-05T00:52:44;100751.59;;;14.22;62.45
50268;BME280;36153;50.960;6.220;2023-01-05T00:55:54;100744.59;;;14.04;63.03
50268;BME280;36153;50.960;6.220;2023-01-05T00:58:55;100752.50;;;14.21;62.45
50268;BME280;36153;50.960;6.220;2023-01-05T01:01:55;100751.63;;;14.30;62.16
50268;BME280;36153;50.960;6.220;2023-01-05T01:04:56;100751.59;;;14.38;62.08
50268;BME280;36153;50.960;6.220;2023-01-05T01:07:57;100737.66;;;14.26;62.60
50268;BME280;36153;50.960;6.220;2023-01-05T01:11:02;100754.22;;;14.21;62.35
50268;BME280;36153;50.960;6.220;2023-01-05T01:14:04;100749.03;;;14.24;62.69
50268;BME280;36153;50.960;6.220;2023-01-05T01:17:05;100757.72;;;14.16;62.41
50268;BME280;36153;50.960;6.220;2023-01-05T01:20:05;100734.16;;;14.40;62.33
50268;BME280;36153;50.960;6.220;2023-01-05T01:23:06;100747.25;;;14.29;62.35
50268;BME280;36153;50.960;6.220;2023-01-05T01:26:08;100753.34;;;14.40;61.99
50268;BME280;36153;50.960;6.220;2023-01-05T01:29:08;100755.97;;;14.52;61.17
50268;BME280;36153;50.960;6.220;2023-01-05T01:32:09;100751.59;;;14.38;61.82
50268;BME280;36153;50.960;6.220;2023-01-05T01:35:09;100747.25;;;14.10;62.64
50268;BME280;36153;50.960;6.220;2023-01-05T01:38:10;100742.00;;;14.15;62.58
50268;BME280;36153;50.960;6.220;2023-01-05T01:41:10;100756.84;;;13.97;62.82
50268;BME280;36153;50.960;6.220;2023-01-05T01:47:56;100768.19;;;14.16;62.54
50268;BME280;36153;50.960;6.220;2023-01-05T01:50:59;100775.16;;;14.21;62.31
50268;BME280;36153;50.960;6.220;2023-01-05T01:54:04;100769.06;;;14.12;62.41
50268;BME280;36153;50.960;6.220;2023-01-05T01:57:09;100782.16;;;14.15;62.43
50268;BME280;36153;50.960;6.220;2023-01-05T02:00:11;100790.00;;;14.11;62.49
50268;BME280;36153;50.960;6.220;2023-01-05T02:03:14;100794.38;;;14.16;62.22
50268;BME280;36153;50.960;6.220;2023-01-05T02:06:14;100798.72;;;13.96;62.50
50268;BME280;36153;50.960;6.220;2023-01-05T02:09:15;100794.34;;;13.92;62.67
50268;BME280;36153;50.960;6.220;2023-01-05T02:26:06;100802.16;;;13.82;62.95
50268;BME280;36153;50.960;6.220;2023-01-05T02:32:33;100811.81;;;14.00;62.66
50268;BME280;36153;50.960;6.220;2023-01-05T02:39:03;100810.94;;;14.03;62.29
50268;BME280;36153;50.960;6.220;2023-01-05T02:42:14;100810.91;;;13.95;62.32
50268;BME280;36153;50.960;6.220;2023-01-05T02:45:16;100817.03;;;13.99;62.34
50268;BME280;36153;50.960;6.220;2023-01-05T02:48:16;100812.69;;;14.15;61.81
50268;BME280;36153;50.960;6.220;2023-01-05T02:51:38;100803.09;;;14.22;61.62
50268;BME280;36153;50.960;6.220;2023-01-05T02:54:45;100814.44;;;14.17;61.67
50268;BME280;36153;50.960;6.220;2023-01-05T02:58:10;100815.31;;;14.16;61.66
50268;BME280;36153;50.960;6.220;2023-01-05T03:04:25;100821.41;;;14.06;61.39
50268;BME280;36153;50.960;6.220;2023-01-05T03:07:30;100809.22;;;14.16;61.37
50268;BME280;36153;50.960;6.220;2023-01-05T03:11:03;100811.84;;;14.17;61.06
50268;BME280;36153;50.960;6.220;2023-01-05T03:14:29;100808.31;;;14.09;61.64
50268;BME280;36153;50.960;6.220;2023-01-05T03:17:43;100809.25;;;14.25;61.04
50268;BME280;36153;50.960;6.220;2023-01-05T03:20:48;100814.44;;;14.13;61.14
50268;BME280;36153;50.960;6.220;2023-01-05T03:23:50;100817.94;;;14.10;61.43
50268;BME280;36153;50.960;6.220;2023-01-05T03:27:11;100819.66;;;14.08;61.07
50268;BME280;36153;50.960;6.220;2023-01-05T03:30:51;100812.72;;;14.30;60.73
50268;BME280;36153;50.960;6.220;2023-01-05T03:37:41;100820.56;;;14.23;60.65
50268;BME280;36153;50.960;6.220;2023-01-05T03:40:44;100815.28;;;13.98;61.56
50268;BME280;36153;50.960;6.220;2023-01-05T03:43:46;100809.19;;;14.08;60.79
50268;BME280;36153;50.960;6.220;2023-01-05T03:46:47;100822.31;;;14.17;60.97
50268;BME280;36153;50.960;6.220;2023-01-05T03:49:48;100823.19;;;14.23;60.76
50268;BME280;36153;50.960;6.220;2023-01-05T03:52:49;100827.56;;;14.25;60.41
50268;BME280;36153;50.960;6.220;2023-01-05T03:55:49;100823.13;;;14.03;61.17
50268;BME280;36153;50.960;6.220;2023-01-05T03:58:49;100839.75;;;14.09;61.29
50268;BME280;36153;50.960;6.220;2023-01-05T04:01:50;100826.66;;;14.11;60.74
50268;BME280;36153;50.960;6.220;2023-01-05T04:04:51;100836.25;;;14.09;60.85
50268;BME280;36153;50.960;6.220;2023-01-05T04:07:52;100836.22;;;14.03;61.14
50268;BME280;36153;50.960;6.220;2023-01-05T04:10:53;100833.63;;;14.15;60.87
50268;BME280;36153;50.960;6.220;2023-01-05T04:13:53;100822.31;;;14.27;60.36
50268;BME280;36153;50.960;6.220;2023-01-05T04:16:54;100817.94;;;14.12;61.02
50268;BME280;36153;50.960;6.220;2023-01-05T04:19:55;100824.91;;;14.08;61.39
50268;BME280;36153;50.960;6.220;2023-01-05T04:22:55;100831.06;;;14.24;60.50
50268;BME280;36153;50.960;6.220;2023-01-05T04:25:55;100838.88;;;14.10;60.86
50268;BME280;36153;50.960;6.220;2023-01-05T04:28:56;100827.53;;;14.14;61.17
50268;BME280;36153;50.960;6.220;2023-01-05T04:31:57;100829.25;;;14.03;62.43
50268;BME280;36153;50.960;6.220;2023-01-05T04:34:58;100831.03;;;14.09;62.08
50268;BME280;36153;50.960;6.220;2023-01-05T04:37:58;100836.22;;;14.01;62.30
50268;BME280;36153;50.960;6.220;2023-01-05T04:40:59;100837.97;;;14.08;62.13
50268;BME280;36153;50.960;6.220;2023-01-05T04:43:59;100855.41;;;13.91;63.06
50268;BME280;36153;50.960;6.220;2023-01-05T04:46:59;100856.28;;;13.97;63.14
50268;BME280;36153;50.960;6.220;2023-01-05T04:50:00;100856.25;;;13.82;63.91
50268;BME280;36153;50.960;6.220;2023-01-05T04:53:00;100847.56;;;13.92;63.48
50268;BME280;36153;50.960;6.220;2023-01-05T04:56:01;100846.66;;;13.86;63.86
50268;BME280;36153;50.960;6.220;2023-01-05T04:59:01;100848.34;;;13.74;64.44
50268;BME280;36153;50.960;6.220;2023-01-05T05:02:01;100843.13;;;13.77;64.04
50268;BME280;36153;50.960;6.220;2023-01-05T05:05:02;100849.25;;;13.79;64.08
50268;BME280;36153;50.960;6.220;2023-01-05T05:08:03;100859.00;;;14.42;62.43
50268;BME280;36153;50.960;6.220;2023-01-05T05:11:04;100851.19;;;14.64;61.35
50268;BME280;36153;50.960;6.220;2023-01-05T05:14:05;100854.69;;;14.67;60.64
50268;BME280;36153;50.960;6.220;2023-01-05T05:17:06;100851.94;;;13.95;62.49
50268;BME280;36153;50.960;6.220;2023-01-05T05:20:07;100855.41;;;13.94;63.14
50268;BME280;36153;50.960;6.220;2023-01-05T05:23:07;100865.00;;;14.01;62.96
50268;BME280;36153;50.960;6.220;2023-01-05T05:26:08;100860.56;;;13.75;63.25
50268;BME280;36153;50.960;6.220;2023-01-05T05:29:09;100864.13;;;13.94;62.79
50268;BME280;36153;50.960;6.220;2023-01-05T05:32:10;100857.16;;;13.98;62.83
50268;BME280;36153;50.960;6.220;2023-01-05T05:35:10;100863.28;;;14.09;62.37
50268;BME280;36153;50.960;6.220;2023-01-05T05:38:11;100862.41;;;13.95;62.73
50268;BME280;36153;50.960;6.220;2023-01-05T05:41:11;100863.25;;;13.92;62.96
50268;BME280;36153;50.960;6.220;2023-01-05T05:44:12;100875.44;;;13.90;63.26
50268;BME280;36153;50.960;6.220;2023-01-05T05:47:12;100869.34;;;13.94;62.91
50268;BME280;36153;50.960;6.220;2023-01-05T05:50:12;100875.47;;;13.98;62.62
50268;BME280;36153;50.960;6.220;2023-01-05T05:53:13;100878.09;;;14.01;62.85
50268;BME280;36153;50.960;6.220;2023-01-05T05:56:13;100881.56;;;13.94;63.03
50268;BME280;36153;50.960;6.220;2023-01-05T05:59:14;100884.25;;;14.09;62.68
50268;BME280;36153;50.960;6.220;2023-01-05T06:02:14;100897.28;;;13.91;62.87
50268;BME280;36153;50.960;6.220;2023-01-05T06:05:15;100889.47;;;14.02;62.54
50268;BME280;36153;50.960;6.220;2023-01-05T06:08:16;100885.09;;;13.96;62.80
50268;BME280;36153;50.960;6.220;2023-01-05T06:11:16;100889.38;;;13.86;62.63
50268;BME280;36153;50.960;6.220;2023-01-05T06:14:16;100892.94;;;13.96;62.30
50268;BME280;36153;50.960;6.220;2023-01-05T06:17:17;100897.28;;;13.94;62.39
50268;BME280;36153;50.960;6.220;2023-01-05T06:20:17;100903.34;;;13.85;62.72
50268;BME280;36153;50.960;6.220;2023-01-05T06:23:18;100905.97;;;13.87;62.90
50268;BME280;36153;50.960;6.220;2023-01-05T06:26:18;100916.44;;;13.87;62.48
50268;BME280;36153;50.960;6.220;2023-01-05T06:29:19;100907.75;;;13.94;62.39
50268;BME280;36153;50.960;6.220;2023-01-05T06:32:19;100918.22;;;13.94;62.22
50268;BME280;36153;50.960;6.220;2023-01-05T06:35:20;100926.97;;;14.02;62.11
50268;BME280;36153;50.960;6.220;2023-01-05T06:38:20;100932.25;;;14.11;62.22
50268;BME280;36153;50.960;6.220;2023-01-05T06:41:21;100932.25;;;14.11;61.54
50268;BME280;36153;50.960;6.220;2023-01-05T06:44:22;100940.94;;;14.04;61.81
50268;BME280;36153;50.960;6.220;2023-01-05T06:47:22;100940.91;;;14.01;61.95
50268;BME280;36153;50.960;6.220;2023-01-05T06:50:22;100941.03;;;14.26;61.36
50268;BME280;36153;50.960;6.220;2023-01-05T06:53:23;100939.22;;;14.06;62.00
50268;BME280;36153;50.960;6.220;2023-01-05T06:56:23;100945.34;;;14.13;61.54
50268;BME280;36153;50.960;6.220;2023-01-05T06:59:23;100950.53;;;14.07;61.40
50268;BME280;36153;50.960;6.220;2023-01-05T07:02:24;100951.38;;;13.96;61.65
50268;BME280;36153;50.960;6.220;2023-01-05T07:05:24;100947.06;;;14.14;61.32
50268;BME280;36153;50.960;6.220;2023-01-05T07:08:24;100948.78;;;14.04;61.79
50268;BME280;36153;50.960;6.220;2023-01-05T07:11:25;100953.16;;;14.04;61.45
50268;BME280;36153;50.960;6.220;2023-01-05T07:14:26;100951.44;;;14.07;61.41
50268;BME280;36153;50.960;6.220;2023-01-05T07:17:27;100965.38;;;14.06;61.60
50268;BME280;36153;50.960;6.220;2023-01-05T07:20:27;100969.75;;;14.07;61.76
50268;BME280;36153;50.960;6.220;2023-01-05T07:23:28;100976.75;;;14.11;60.90
50268;BME280;36153;50.960;6.220;2023-01-05T07:26:29;100975.88;;;14.09;61.23
50268;BME280;36153;50.960;6.220;2023-01-05T07:29:29;100981.16;;;14.15;61.18
50268;BME280;36153;50.960;6.220;2023-01-05T07:32:29;100977.56;;;14.04;61.15
50268;BME280;36153;50.960;6.220;2023-01-05T07:35:31;100972.38;;;14.07;61.33
50268;BME280;36153;50.960;6.220;2023-01-05T07:38:31;100984.56;;;14.04;61.40
50268;BME280;36153;50.960;6.220;2023-01-05T07:41:32;100982.81;;;14.04;61.65
50268;BME280;36153;50.960;6.220;2023-01-05T07:44:32;100992.47;;;14.11;61.07
50268;BME280;36153;50.960;6.220;2023-01-05T07:47:33;100988.03;;;13.96;61.59
50268;BME280;36153;50.960;6.220;2023-01-05T07:50:33;100993.19;;;13.89;61.83
50268;BME280;36153;50.960;6.220;2023-01-05T07:53:35;100993.38;;;14.20;61.01
50268;BME280;36153;50.960;6.220;2023-01-05T07:56:37;100998.50;;;13.99;61.40
50268;BME280;36153;50.960;6.220;2023-01-05T07:59:37;101010.00;;;14.29;60.80
50268;BME280;36153;50.960;6.220;2023-01-05T08:02:38;101014.28;;;14.16;60.90
50268;BME280;36153;50.960;6.220;2023-01-05T08:05:38;101023.84;;;14.07;61.43
50268;BME280;36153;50.960;6.220;2023-01-05T08:08:39;101018.66;;;14.16;61.20
50268;BME280;36153;50.960;6.220;2023-01-05T08:11:40;101016.03;;;14.13;60.99
50268;BME280;36153;50.960;6.220;2023-01-05T08:14:40;101025.66;;;14.20;60.93
50268;BME280;36153;50.960;6.220;2023-01-05T08:17:40;101031.75;;;14.17;60.75
50268;BME280;36153;50.960;6.220;2023-01-05T08:20:41;101026.53;;;14.21;60.63
50268;BME280;36153;50.960;6.220;2023-01-05T08:23:41;101024.75;;;14.18;60.99
50268;BME280;36153;50.960;6.220;2023-01-05T08:26:41;101022.19;;;14.21;60.95
50268;BME280;36153;50.960;6.220;2023-01-05T08:29:42;101025.66;;;14.17;60.81
50268;BME280;36153;50.960;6.220;2023-01-05T08:32:42;101030.91;;;14.22;60.68
50268;BME280;36153;50.960;6.220;2023-01-05T08:35:43;101040.53;;;14.26;60.58
50268;BME280;36153;50.960;6.220;2023-01-05T08:38:45;101037.91;;;14.24;60.58
50268;BME280;36153;50.960;6.220;2023-01-05T08:41:48;101037.91;;;14.21;61.28
50268;BME280;36153;50.960;6.220;2023-01-05T08:44:48;101036.09;;;14.12;61.57
50268;BME280;36153;50.960;6.220;2023-01-05T08:47:49;101045.72;;;14.16;61.01
50268;BME280;36153;50.960;6.220;2023-01-05T08:50:50;101044.91;;;14.28;60.75
50268;BME280;36153;50.960;6.220;2023-01-05T08:53:51;101050.16;;;14.31;60.72
50268;BME280;36153;50.960;6.220;2023-01-05T08:56:51;101046.69;;;14.39;60.63
50268;BME280;36153;50.960;6.220;2023-01-05T08:59:52;101058.94;;;14.40;60.72
50268;BME280;36153;50.960;6.220;2023-01-05T09:02:52;101054.53;;;14.32;60.78
50268;BME280;36153;50.960;6.220;2023-01-05T09:05:53;101058.88;;;14.30;60.60
50268;BME280;36153;50.960;6.220;2023-01-05T09:08:54;101065.00;;;14.34;60.91
50268;BME280;36153;50.960;6.220;2023-01-05T09:11:54;101060.75;;;14.53;59.97
50268;BME280;36153;50.960;6.220;2023-01-05T09:14:55;101067.69;;;14.45;60.25
50268;BME280;36153;50.960;6.220;2023-01-05T09:17:55;101076.41;;;14.47;60.13
50268;BME280;36153;50.960;6.220;2023-01-05T09:20:55;101079.88;;;14.40;60.35
50268;BME280;36153;50.960;6.220;2023-01-05T09:23:56;101079.09;;;14.56;59.88
50268;BME280;36153;50.960;6.220;2023-01-05T09:26:56;101079.88;;;14.43;60.25
50268;BME280;36153;50.960;6.220;2023-01-05T09:29:57;101077.34;;;14.60;59.77
50268;BME280;36153;50.960;6.220;2023-01-05T09:32:57;101082.56;;;14.52;59.99
50268;BME280;36153;50.960;6.220;2023-01-05T09:35:57;101092.13;;;14.41;59.85
50268;BME280;36153;50.960;6.220;2023-01-05T09:38:58;101094.75;;;14.45;59.97
50268;BME280;36153;50.960;6.220;2023-01-05T09:42:03;101100.16;;;14.76;59.55
50268;BME280;36153;50.960;6.220;2023-01-05T09:45:06;101103.53;;;14.57;59.58
50268;BME280;36153;50.960;6.220;2023-01-05T09:48:08;101105.28;;;14.61;59.73
50268;BME280;36153;50.960;6.220;2023-01-05T09:51:12;101113.94;;;14.46;59.46
50268;BME280;36153;50.960;6.220;2023-01-05T09:54:16;101121.91;;;14.61;59.69
50268;BME280;36153;50.960;6.220;2023-01-05T09:57:23;101132.44;;;14.63;59.59
50268;BME280;36153;50.960;6.220;2023-01-05T10:00:25;101121.16;;;14.89;58.73
50268;BME280;36153;50.960;6.220;2023-01-05T10:03:26;101127.28;;;14.86;58.83
50268;BME280;36153;50.960;6.220;2023-01-05T10:06:30;101137.75;;;14.78;58.74
50268;BME280;36153;50.960;6.220;2023-01-05T10:09:38;101124.69;;;14.94;58.42
50268;BME280;36153;50.960;6.220;2023-01-05T10:12:47;101128.28;;;15.27;57.72
50268;BME280;36153;50.960;6.220;2023-01-05T10:16:02;101123.88;;;15.16;57.63
50268;BME280;36153;50.960;6.220;2023-01-05T10:19:03;101130.84;;;15.00;57.93
50268;BME280;36153;50.960;6.220;2023-01-05T10:32:22;101134.41;;;15.23;57.54
50268;BME280;36153;50.960;6.220;2023-01-05T10:41:59;101145.78;;;15.40;56.96
50268;BME280;36153;50.960;6.220;2023-01-05T10:45:01;101151.03;;;15.37;56.77
50268;BME280;36153;50.960;6.220;2023-01-05T10:48:03;101153.66;;;15.59;56.68
50268;BME280;36153;50.960;6.220;2023-01-05T10:51:09;101165.06;;;15.58;56.37
50268;BME280;36153;50.960;6.220;2023-01-05T10:54:21;101153.72;;;15.79;56.10
50268;BME280;36153;50.960;6.220;2023-01-05T11:00:40;101158.97;;;15.85;55.66
50268;BME280;36153;50.960;6.220;2023-01-05T11:03:46;101156.34;;;15.96;55.10
50268;BME280;36153;50.960;6.220;2023-01-05T11:06:48;101156.38;;;15.90;54.98
50268;BME280;36153;50.960;6.220;2023-01-05T11:09:48;101162.47;;;16.15;55.13
50268;BME280;36153;50.960;6.220;2023-01-05T11:12:58;101165.13;;;16.13;54.78
50268;BME280;36153;50.960;6.220;2023-01-05T11:16:12;101153.69;;;15.69;55.43
50268;BME280;36153;50.960;6.220;2023-01-05T11:19:16;101147.50;;;15.26;56.48
50268;BME280;36153;50.960;6.220;2023-01-05T11:22:27;101151.06;;;15.52;56.07
50268;BME280;36153;50.960;6.220;2023-01-05T11:25:31;101145.78;;;15.43;56.28
50268;BME280;36153;50.960;6.220;2023-01-05T11:28:35;101161.59;;;15.77;55.57
50268;BME280;36153;50.960;6.220;2023-01-05T11:31:46;101144.94;;;15.52;56.01
50268;BME280;36153;50.960;6.220;2023-01-05T11:34:48;101151.03;;;15.40;55.39
50268;BME280;36153;50.960;6.220;2023-01-05T11:37:50;101151.00;;;15.31;55.86
50268;BME280;36153;50.960;6.220;2023-01-05T11:40:51;101156.28;;;15.40;55.46
50268;BME280;36153;50.960;6.220;2023-01-05T11:43:53;101155.47;;;15.66;55.56
50268;BME280;36153;50.960;6.220;2023-01-05T11:46:53;101159.00;;;16.02;55.17
50268;BME280;36153;50.960;6.220;2023-01-05T11:50:21;101155.47;;;16.26;54.31
50268;BME280;36153;50.960;6.220;2023-01-05T11:56:30;101161.56;;;15.69;55.54
50268;BME280;36153;50.960;6.220;2023-01-05T11:59:31;101156.34;;;15.74;56.15
50268;BME280;36153;50.960;6.220;2023-01-05T12:06:01;101143.22;;;15.62;56.29
50268;BME280;36153;50.960;6.220;2023-01-05T12:09:31;101145.00;;;15.80;56.00
50268;BME280;36153;50.960;6.220;2023-01-05T12:16:20;101145.88;;;15.91;55.55
50268;BME280;36153;50.960;6.220;2023-01-05T12:26:27;101147.56;;;15.74;55.86
50268;BME280;36153;50.960;6.220;2023-01-05T12:29:44;101146.72;;;16.06;55.65
50268;BME280;36153;50.960;6.220;2023-01-05T12:36:35;101151.13;;;15.80;55.34
50268;BME280;36153;50.960;6.220;2023-01-05T12:42:56;101149.38;;;15.82;55.67
50268;BME280;36153;50.960;6.220;2023-01-05T12:49:47;101136.22;;;15.72;55.58
50268;BME280;36153;50.960;6.220;2023-01-05T12:53:34;101142.31;;;15.72;55.75
50268;BME280;36153;50.960;6.220;2023-01-05T12:56:42;101142.31;;;15.58;55.90
50268;BME280;36153;50.960;6.220;2023-01-05T12:59:53;101147.50;;;15.23;56.92
50268;BME280;36153;50.960;6.220;2023-01-05T13:03:00;101139.69;;;15.36;56.59
50268;BME280;36153;50.960;6.220;2023-01-05T13:06:14;101140.53;;;15.40;56.42
50268;BME280;36153;50.960;6.220;2023-01-05T13:09:21;101146.69;;;15.56;56.11
50268;BME280;36153;50.960;6.220;2023-01-05T13:12:22;101145.78;;;15.42;56.54
50268;BME280;36153;50.960;6.220;2023-01-05T13:15:31;101137.94;;;15.71;56.14
50268;BME280;36153;50.960;6.220;2023-01-05T13:18:36;101126.56;;;15.44;56.62
50268;BME280;36153;50.960;6.220;2023-01-05T13:21:43;101127.41;;;15.18;56.75
50268;BME280;36153;50.960;6.220;2023-01-05T13:24:59;101131.75;;;15.21;56.86
50268;BME280;36153;50.960;6.220;2023-01-05T13:28:02;101131.75;;;15.16;57.19
50268;BME280;36153;50.960;6.220;2023-01-05T13:51:52;101144.94;;;15.63;56.26
50268;BME280;36153;50.960;6.220;2023-01-05T13:54:56;101130.94;;;15.64;56.12
50268;BME280;36153;50.960;6.220;2023-01-05T13:58:00;101132.69;;;15.54;55.96
50268;BME280;36153;50.960;6.220;2023-01-05T14:01:04;101128.31;;;15.51;56.61
50268;BME280;36153;50.960;6.220;2023-01-05T14:04:16;101135.31;;;15.59;56.58
50268;BME280;36153;50.960;6.220;2023-01-05T14:07:17;101135.34;;;15.80;55.72
50268;BME280;36153;50.960;6.220;2023-01-05T14:10:28;101137.09;;;15.69;56.07
50268;BME280;36153;50.960;6.220;2023-01-05T14:16:50;101138.00;;;15.90;55.74
50268;BME280;36153;50.960;6.220;2023-01-05T14:19:51;101133.63;;;15.82;55.38
50268;BME280;36153;50.960;6.220;2023-01-05T14:22:51;101131.00;;;15.82;55.65
50268;BME280;36153;50.960;6.220;2023-01-05T14:25:55;101135.31;;;15.71;55.98
50268;BME280;36153;50.960;6.220;2023-01-05T14:28:56;101130.06;;;15.56;56.38
50268;BME280;36153;50.960;6.220;2023-01-05T14:32:04;101136.22;;;15.72;55.89
50268;BME280;36153;50.960;6.220;2023-01-05T14:35:21;101135.31;;;15.73;56.04
50268;BME280;36153;50.960;6.220;2023-01-05T14:38:23;101137.94;;;15.66;56.33
50268;BME280;36153;50.960;6.220;2023-01-05T14:41:26;101130.09;;;15.62;56.78
50268;BME280;36153;50.960;6.220;2023-01-05T14:44:50;101135.31;;;15.59;56.99
50268;BME280;36153;50.960;6.220;2023-01-05T14:48:03;101136.19;;;15.62;56.58
50268;BME280;36153;50.960;6.220;2023-01-05T14:51:22;101144.06;;;15.61;56.84
50268;BME280;36153;50.960;6.220;2023-01-05T14:57:51;101139.69;;;15.41;57.53
50268;BME280;36153;50.960;6.220;2023-01-05T15:00:55;101143.97;;;15.11;58.30
50268;BME280;36153;50.960;6.220;2023-01-05T15:04:07;101151.00;;;15.28;58.18
50268;BME280;36153;50.960;6.220;2023-01-05T15:07:27;101150.06;;;15.02;58.59
50268;BME280;36153;50.960;6.220;2023-01-05T15:17:50;101149.16;;;14.93;59.62
50268;BME280;36153;50.960;6.220;2023-01-05T15:37:16;101150.69;;;14.54;64.17
50268;BME280;36153;50.960;6.220;2023-01-05T15:43:21;101135.84;;;14.56;63.74
50268;BME280;36153;50.960;6.220;2023-01-05T15:46:31;101134.16;;;14.64;64.07
50268;BME280;36153;50.960;6.220;2023-01-05T15:49:32;101134.19;;;14.67;64.13
50268;BME280;36153;50.960;6.220;2023-01-05T15:52:36;101134.97;;;14.57;64.60
50268;BME280;36153;50.960;6.220;2023-01-05T15:55:42;101135.94;;;14.70;64.34
50268;BME280;36153;50.960;6.220;2023-01-05T15:58:44;101141.22;;;14.71;64.19
50268;BME280;36153;50.960;6.220;2023-01-05T16:01:44;101152.44;;;14.55;64.89
50268;BME280;36153;50.960;6.220;2023-01-05T16:04:45;101150.69;;;14.52;65.15
50268;BME280;36153;50.960;6.220;2023-01-05T16:07:59;101141.91;;;14.51;65.77
50268;BME280;36153;50.960;6.220;2023-01-05T16:11:05;101142.94;;;14.74;65.13
50268;BME280;36153;50.960;6.220;2023-01-05T16:17:29;101148.06;;;14.55;65.22
50268;BME280;36153;50.960;6.220;2023-01-05T16:20:32;101135.81;;;14.52;65.75
50268;BME280;36153;50.960;6.220;2023-01-05T16:23:38;101135.81;;;14.52;65.77
50268;BME280;36153;50.960;6.220;2023-01-05T16:26:39;101135.75;;;14.39;66.24
50268;BME280;36153;50.960;6.220;2023-01-05T16:29:42;101132.25;;;14.38;66.53
50268;BME280;36153;50.960;6.220;2023-01-05T16:32:55;101115.75;;;14.55;66.14
50268;BME280;36153;50.960;6.220;2023-01-05T16:36:17;101116.69;;;14.61;65.65
50268;BME280;36153;50.960;6.220;2023-01-05T16:39:22;101112.25;;;14.56;66.27
50268;BME280;36153;50.960;6.220;2023-01-05T16:42:23;101112.25;;;14.54;65.85
50268;BME280;36153;50.960;6.220;2023-01-05T16:45:39;101108.78;;;14.60;65.66
50268;BME280;36153;50.960;6.220;2023-01-05T16:51:40;101105.38;;;14.67;65.76
50268;BME280;36153;50.960;6.220;2023-01-05T16:54:41;101101.91;;;14.74;65.54
50268;BME280;36153;50.960;6.220;2023-01-05T16:57:43;101108.91;;;14.80;65.14
50268;BME280;36153;50.960;6.220;2023-01-05T17:00:43;101102.66;;;14.58;65.74
50268;BME280;36153;50.960;6.220;2023-01-05T17:03:44;101105.28;;;14.56;65.88
50268;BME280;36153;50.960;6.220;2023-01-05T17:06:46;101105.38;;;14.67;65.84
50268;BME280;36153;50.960;6.220;2023-01-05T17:09:47;101105.38;;;14.67;65.65
50268;BME280;36153;50.960;6.220;2023-01-05T17:13:09;101107.16;;;14.80;65.52
50268;BME280;36153;50.960;6.220;2023-01-05T17:16:12;101099.25;;;14.68;65.57
50268;BME280;36153;50.960;6.220;2023-01-05T17:19:14;101101.00;;;14.64;65.85
50268;BME280;36153;50.960;6.220;2023-01-05T17:22:15;101100.13;;;14.70;65.81
50268;BME280;36153;50.960;6.220;2023-01-05T17:25:16;101101.91;;;14.77;65.71
50268;BME280;36153;50.960;6.220;2023-01-05T17:28:16;101100.13;;;14.70;65.33
50268;BME280;36153;50.960;6.220;2023-01-05T17:31:17;101101.03;;;14.77;65.73
50268;BME280;36153;50.960;6.220;2023-01-05T17:34:18;101093.19;;;14.77;65.52
50268;BME280;36153;50.960;6.220;2023-01-05T17:37:18;101091.38;;;14.68;65.78
50268;BME280;36153;50.960;6.220;2023-01-05T17:40:20;101086.09;;;14.62;65.76
50268;BME280;36153;50.960;6.220;2023-01-05T17:43:20;101089.63;;;14.62;66.01
50268;BME280;36153;50.960;6.220;2023-01-05T17:46:29;101089.56;;;14.58;66.47
50268;BME280;36153;50.960;6.220;2023-01-05T17:49:30;101087.91;;;14.72;66.37
50268;BME280;36153;50.960;6.220;2023-01-05T17:52:32;101089.66;;;14.67;66.54
50268;BME280;36153;50.960;6.220;2023-01-05T17:55:32;101083.56;;;14.77;66.67
50268;BME280;36153;50.960;6.220;2023-01-05T17:58:33;101081.81;;;14.75;66.80
50268;BME280;36153;50.960;6.220;2023-01-05T18:01:33;101076.59;;;14.92;66.38
50268;BME280;36153;50.960;6.220;2023-01-05T18:04:33;101078.41;;;15.00;66.22
50268;BME280;36153;50.960;6.220;2023-01-05T18:07:35;101082.72;;;14.88;66.88
50268;BME280;36153;50.960;6.220;2023-01-05T18:10:37;101081.00;;;14.97;66.73
50268;BME280;36153;50.960;6.220;2023-01-05T18:13:37;101074.00;;;14.92;67.03
50268;BME280;36153;50.960;6.220;2023-01-05T18:16:38;101073.97;;;14.82;67.18
50268;BME280;36153;50.960;6.220;2023-01-05T18:19:38;101078.38;;;14.87;67.20
50268;BME280;36153;50.960;6.220;2023-01-05T18:22:39;101077.47;;;14.78;67.51